Northwest Alabama Regional Airport Muscle Shoals US
ICAO: KMSL
IATA: MSL
Category: Medium
Scheduled Services: Yes

Elevation: 551 ft
TransAlt. 18000 ft.

Airport Communications:
ASOS:119.425
MEMPHIS CNTR:120.8
ANNISTON RDO:122.2
CTAF/UNICOM:123.05

KMSL Zoom In..

If you have problems with the map follow the link
https://www.worldairports.se/pages/airport.php?
ICAO=KMSL

Runways:

(A) RW 11 length 6694 ft width 150 ft
---- / hdg 114

(B) RW 18 length 4000 ft width 100 ft
---- / hdg 181

(C) RW 29 length 6694 ft width 150 ft
ILS 109.70 / hdg 294

(D) RW 36 length 4000 ft width 100 ft
---- / hdg 1

Location; KMSL
Day. 27 / Time. 00.53 Zulu
* Altimeter: 29.99
* Temperature: 09° c. 48.2°f.
* Wind from: 150° Speed 05 kn.
Dewpoint: 04° c.
Visibility: 10 Statute Miles.
Clouds: Overcast 5000 ft.

KMSL 270053Z AUTO 15005KT 10SM OVC050 09/04 A2999 RMK AO2 SLP158 T00940044 $


Wind From 150°
Speed 05 kn.

 
 
jpsmedia worldairports.se 2020   terms of use